Time;durP1;ratioP1;P1;durP2;ratioP2;P2;SDS_P1;SDS_P2;PMS_P1;PMS_P2;Temp;Humidity;BMP_temperature;BMP_pressure;BME280_temperature;BME280_humidity;BME280_pressure;Samples;Min_cycle;Max_cycle;Signal;HPM_P1;HPM_P2
2020/12/25 00:00:14;;;;;;;2.08;1.75;;;1.80;99.90;;;;;;4995918;28;20236;-85
2020/12/25 00:02:41;;;;;;;3.50;2.40;;;1.90;99.90;;;;;;4996943;28;20640;-87
2020/12/25 00:05:07;;;;;;;2.75;2.05;;;1.90;99.90;;;;;;4993626;28;20252;-89
2020/12/25 00:07:38;;;;;;;2.20;2.00;;;1.90;99.90;;;;;;4995923;28;20217;-92
2020/12/25 00:10:06;;;;;;;3.75;2.20;;;2.00;99.90;;;;;;5002110;28;20243;-86
2020/12/25 00:12:33;;;;;;;3.10;2.50;;;2.00;99.90;;;;;;5000477;28;20640;-86
2020/12/25 00:14:59;;;;;;;2.08;1.58;;;2.00;99.90;;;;;;4999730;28;20243;-89
2020/12/25 00:17:27;;;;;;;2.70;2.50;;;1.90;99.90;;;;;;4994029;28;20648;-88
2020/12/25 00:19:53;;;;;;;3.88;2.78;;;1.90;99.90;;;;;;4995208;28;20295;-85
2020/12/25 00:22:19;;;;;;;5.47;3.33;;;1.90;99.90;;;;;;4996871;28;20527;-90
2020/12/25 00:24:46;;;;;;;3.72;2.55;;;1.90;99.90;;;;;;4998021;28;20236;-92
2020/12/25 00:27:12;;;;;;;2.75;2.55;;;1.90;99.90;;;;;;4998063;28;20247;-84
2020/12/25 00:29:38;;;;;;;3.58;2.90;;;1.90;99.90;;;;;;4998194;28;20680;-84
2020/12/25 00:32:05;;;;;;;4.80;3.05;;;1.90;99.90;;;;;;4996661;28;20680;-84
2020/12/25 00:34:32;;;;;;;4.13;3.35;;;1.90;99.90;;;;;;4996444;28;20263;-83
2020/12/25 00:36:58;;;;;;;3.33;1.98;;;1.90;99.90;;;;;;4995465;28;20208;-83
2020/12/25 00:39:25;;;;;;;5.25;3.65;;;2.00;99.90;;;;;;4995119;28;20299;-82
2020/12/25 00:41:51;;;;;;;3.15;2.85;;;2.00;99.90;;;;;;4996208;28;20294;-81
2020/12/25 00:44:19;;;;;;;3.50;3.20;;;1.90;99.90;;;;;;4996034;28;20275;-82
2020/12/25 00:46:46;;;;;;;4.15;2.92;;;1.90;99.90;;;;;;4996426;28;20287;-83
2020/12/25 00:49:13;;;;;;;3.03;2.58;;;1.90;99.90;;;;;;4996409;28;20216;-81
2020/12/25 00:51:40;;;;;;;2.50;2.20;;;2.00;99.90;;;;;;4995023;28;20632;-85
2020/12/25 00:54:06;;;;;;;3.65;2.50;;;2.00;99.90;;;;;;4996046;28;20636;-82
2020/12/25 00:56:33;;;;;;;2.92;2.60;;;2.00;99.90;;;;;;4996143;28;20298;-83
2020/12/25 00:58:59;;;;;;;4.10;2.63;;;2.00;99.90;;;;;;4995923;28;20291;-81
2020/12/25 01:01:26;;;;;;;4.78;3.90;;;1.90;99.90;;;;;;4996072;28;20269;-83
2020/12/25 01:03:52;;;;;;;3.35;2.30;;;2.00;99.90;;;;;;4995060;28;20311;-84
2020/12/25 01:06:19;;;;;;;2.65;2.13;;;1.90;99.90;;;;;;4994914;28;20272;-84
2020/12/25 01:08:48;;;;;;;1.52;1.40;;;2.00;99.90;;;;;;4995987;28;20204;-84
2020/12/25 01:11:15;;;;;;;1.60;1.42;;;2.00;99.90;;;;;;4995923;28;20230;-83
2020/12/25 01:13:43;;;;;;;1.98;1.60;;;2.00;99.90;;;;;;4995970;28;20294;-84
2020/12/25 01:16:15;;;;;;;2.17;1.98;;;2.00;99.90;;;;;;4995746;28;20205;-91
2020/12/25 01:18:42;;;;;;;2.97;2.00;;;2.10;99.90;;;;;;4996317;28;20215;-88
2020/12/25 01:21:08;;;;;;;2.60;2.00;;;2.10;99.90;;;;;;4994867;28;20299;-89
2020/12/25 01:23:35;;;;;;;2.33;1.88;;;2.10;99.90;;;;;;4995662;28;20212;-89
2020/12/25 01:26:05;;;;;;;2.53;1.85;;;2.10;99.90;;;;;;4995834;28;20626;-83
2020/12/25 01:28:31;;;;;;;2.58;1.80;;;2.00;99.90;;;;;;4995691;28;20243;-86
2020/12/25 01:30:57;;;;;;;2.28;2.08;;;2.00;99.90;;;;;;4995608;28;20294;-81
2020/12/25 01:33:24;;;;;;;2.25;1.83;;;2.10;99.90;;;;;;4994726;28;20208;-83
2020/12/25 01:35:51;;;;;;;2.50;1.85;;;2.10;99.90;;;;;;4994364;28;20213;-82
2020/12/25 01:38:17;;;;;;;3.08;2.50;;;2.10;99.90;;;;;;4995089;28;20239;-78
2020/12/25 01:40:43;;;;;;;2.42;2.17;;;2.10;99.90;;;;;;4994870;28;20209;-80
2020/12/25 01:43:11;;;;;;;3.13;2.83;;;2.10;99.90;;;;;;4995214;28;20206;-82
2020/12/25 01:45:37;;;;;;;4.45;2.20;;;2.00;99.90;;;;;;4995070;28;20319;-81
2020/12/25 01:48:04;;;;;;;3.50;2.80;;;2.00;99.90;;;;;;4995192;28;20267;-81
2020/12/25 01:50:31;;;;;;;2.45;2.20;;;2.00;99.90;;;;;;4993752;28;20291;-80
2020/12/25 01:52:59;;;;;;;2.28;2.05;;;2.00;99.90;;;;;;4995027;28;20294;-81
2020/12/25 01:55:29;;;;;;;5.10;3.55;;;2.00;99.90;;;;;;4994982;28;20298;-86
2020/12/25 01:57:57;;;;;;;3.40;2.50;;;2.00;99.90;;;;;;4995400;28;20291;-84
2020/12/25 02:00:24;;;;;;;3.20;2.80;;;2.00;99.90;;;;;;4994884;28;20295;-83
2020/12/25 02:02:51;;;;;;;3.20;2.47;;;2.00;99.90;;;;;;4993988;28;20210;-84
2020/12/25 02:05:17;;;;;;;2.85;2.00;;;1.90;99.90;;;;;;4988142;28;20776;-83
2020/12/25 02:07:45;;;;;;;3.20;2.90;;;1.90;99.90;;;;;;4994359;28;20204;-84
2020/12/25 02:10:11;;;;;;;3.88;2.88;;;1.90;99.90;;;;;;4994340;28;20219;-83
2020/12/25 02:12:38;;;;;;;3.92;2.90;;;1.90;99.90;;;;;;4994437;28;21059;-83
2020/12/25 02:15:05;;;;;;;4.55;3.15;;;1.90;99.90;;;;;;4994494;28;20685;-83
2020/12/25 02:17:32;;;;;;;3.72;2.78;;;2.00;99.90;;;;;;4993787;28;20220;-83
2020/12/25 02:20:02;;;;;;;3.55;3.25;;;2.10;99.90;;;;;;4994166;28;20728;-82
2020/12/25 02:22:29;;;;;;;3.65;2.85;;;2.10;99.90;;;;;;4993307;28;20212;-82
2020/12/25 02:24:55;;;;;;;3.03;2.75;;;2.20;99.90;;;;;;4994444;28;20323;-82
2020/12/25 02:27:22;;;;;;;3.00;2.22;;;2.20;99.90;;;;;;4995138;28;20645;-83
2020/12/25 02:29:48;;;;;;;3.97;3.47;;;2.20;99.90;;;;;;4994390;28;20206;-83
2020/12/25 02:32:14;;;;;;;4.55;3.60;;;2.20;99.90;;;;;;4995054;28;20634;-84
2020/12/25 02:34:41;;;;;;;4.00;3.60;;;2.20;99.90;;;;;;4994456;28;20354;-84
2020/12/25 02:37:07;;;;;;;5.95;4.78;;;2.20;99.90;;;;;;4993772;28;20208;-82
2020/12/25 02:39:35;;;;;;;7.18;4.80;;;2.20;99.90;;;;;;4993358;28;20208;-83
2020/12/25 02:42:02;;;;;;;4.03;3.45;;;2.30;99.90;;;;;;4993923;28;20215;-84
2020/12/25 02:44:28;;;;;;;6.32;3.83;;;2.30;99.90;;;;;;4994449;28;20236;-81
2020/12/25 02:46:54;;;;;;;9.43;5.25;;;2.10;99.90;;;;;;4993921;28;20291;-82
2020/12/25 02:49:21;;;;;;;6.40;4.18;;;2.10;99.90;;;;;;4994045;28;20298;-83
2020/12/25 02:51:48;;;;;;;5.03;3.90;;;2.10;99.90;;;;;;4993132;28;20296;-86
2020/12/25 02:57:19;;;;;;;6.45;5.68;;;2.30;99.90;;;;;;5049372;23;20243;-92
2020/12/25 02:59:45;;;;;;;6.38;5.05;;;2.40;99.90;;;;;;4995328;28;20208;-88
2020/12/25 03:02:11;;;;;;;6.82;5.05;;;2.40;99.90;;;;;;5009090;28;20203;-88
2020/12/25 03:04:38;;;;;;;8.10;5.85;;;2.40;99.90;;;;;;5016947;28;20761;-87
2020/12/25 03:07:04;;;;;;;8.77;6.55;;;2.40;99.90;;;;;;5012519;28;20267;-87
2020/12/25 03:09:31;;;;;;;10.15;5.93;;;2.40;99.90;;;;;;4997643;28;20291;-86
2020/12/25 03:11:57;;;;;;;8.52;6.57;;;2.50;99.90;;;;;;5000253;28;20208;-88
2020/12/25 03:14:24;;;;;;;9.40;7.13;;;2.50;99.90;;;;;;4995853;28;20195;-90
2020/12/25 03:16:51;;;;;;;8.75;6.60;;;2.60;99.90;;;;;;4993601;28;20212;-83
2020/12/25 03:19:17;;;;;;;10.45;6.65;;;2.70;99.90;;;;;;4993653;28;20731;-87
2020/12/25 03:21:44;;;;;;;10.68;7.63;;;2.70;99.90;;;;;;4992426;28;20287;-88
2020/12/25 03:24:10;;;;;;;10.52;6.82;;;2.70;99.90;;;;;;4992756;28;20587;-90
2020/12/25 03:26:37;;;;;;;10.25;6.57;;;2.70;99.90;;;;;;4994433;28;20204;-83
2020/12/25 03:29:03;;;;;;;12.43;6.10;;;2.70;99.90;;;;;;4993490;28;20235;-91
2020/12/25 03:31:34;;;;;;;7.95;5.60;;;2.70;99.90;;;;;;5001431;28;20231;-93
2020/12/25 03:34:00;;;;;;;10.38;6.38;;;2.70;99.90;;;;;;4994843;28;20716;-89
2020/12/25 03:36:33;;;;;;;10.63;6.68;;;2.70;99.90;;;;;;4993267;28;20303;-90
2020/12/25 03:39:03;;;;;;;8.75;5.80;;;2.70;99.90;;;;;;4993610;28;20223;-91
2020/12/25 03:41:29;;;;;;;8.75;5.88;;;2.80;99.90;;;;;;4994072;28;20600;-93
2020/12/25 03:43:56;;;;;;;13.20;7.90;;;2.80;99.90;;;;;;4995309;28;20287;-92
2020/12/25 03:46:22;;;;;;;8.68;5.93;;;2.80;99.90;;;;;;4988696;28;20281;-92
2020/12/25 03:48:50;;;;;;;12.95;6.78;;;2.80;99.90;;;;;;4974465;28;20208;-92
2020/12/25 03:51:16;;;;;;;8.02;5.15;;;2.80;99.90;;;;;;4976607;28;20645;-90
2020/12/25 03:53:42;;;;;;;6.90;5.70;;;2.80;99.90;;;;;;4976944;28;20293;-90
2020/12/25 03:56:09;;;;;;;15.07;7.75;;;2.80;99.90;;;;;;4982277;28;20263;-87
2020/12/25 03:58:35;;;;;;;13.27;7.68;;;2.80;99.90;;;;;;4997160;28;20295;-88
2020/12/25 04:01:02;;;;;;;12.68;7.50;;;2.80;99.90;;;;;;4997165;28;20213;-91
2020/12/25 04:03:28;;;;;;;10.52;7.78;;;2.80;99.90;;;;;;4997206;28;20212;-88
2020/12/25 04:05:57;;;;;;;9.88;6.85;;;2.90;99.90;;;;;;4995645;28;20322;-87
2020/12/25 04:08:23;;;;;;;10.85;6.30;;;2.90;99.90;;;;;;4997014;28;20204;-89
2020/12/25 04:10:49;;;;;;;10.50;7.30;;;2.80;99.90;;;;;;4996786;28;20214;-86
2020/12/25 04:13:16;;;;;;;15.50;8.07;;;2.90;99.90;;;;;;4996828;28;20232;-88
2020/12/25 04:15:42;;;;;;;25.95;6.80;;;2.90;99.90;;;;;;4997067;28;20214;-85
2020/12/25 04:18:08;;;;;;;10.82;6.28;;;2.90;99.90;;;;;;5016627;28;20828;-91
2020/12/25 04:20:35;;;;;;;12.50;8.07;;;2.90;99.90;;;;;;5015604;28;20238;-84
2020/12/25 04:23:02;;;;;;;8.02;5.97;;;2.70;99.90;;;;;;5016146;28;20676;-86
2020/12/25 04:25:30;;;;;;;9.80;6.22;;;2.70;99.90;;;;;;5015914;28;20289;-85
2020/12/25 04:28:03;;;;;;;8.60;5.80;;;2.70;99.90;;;;;;5009666;28;20729;-88
2020/12/25 04:30:29;;;;;;;10.77;5.60;;;2.70;99.90;;;;;;5016330;28;20289;-87
2020/12/25 04:32:55;;;;;;;11.30;7.47;;;2.80;99.90;;;;;;5016407;28;20235;-86
2020/12/25 04:35:22;;;;;;;9.98;5.63;;;2.70;99.90;;;;;;5014093;28;20206;-89
2020/12/25 04:37:48;;;;;;;11.23;7.50;;;2.70;99.90;;;;;;5016004;28;20203;-89
2020/12/25 04:40:16;;;;;;;10.45;6.68;;;2.80;99.90;;;;;;5016086;28;20298;-92
2020/12/25 04:42:48;;;;;;;10.55;6.75;;;2.70;99.90;;;;;;5015846;28;20214;-88
2020/12/25 04:45:15;;;;;;;7.97;5.32;;;2.70;99.90;;;;;;5015917;28;20326;-92
2020/12/25 04:47:41;;;;;;;15.20;8.20;;;2.80;99.90;;;;;;5016251;28;20211;-89
2020/12/25 04:50:08;;;;;;;10.80;7.35;;;2.80;99.90;;;;;;5015457;28;20298;-91
2020/12/25 04:52:34;;;;;;;11.00;5.68;;;2.80;99.90;;;;;;5016097;28;20203;-85
2020/12/25 04:55:00;;;;;;;14.75;6.68;;;2.80;99.90;;;;;;5015789;28;20219;-86
2020/12/25 04:57:28;;;;;;;6.40;3.97;;;2.80;99.90;;;;;;5015459;28;20326;-90
2020/12/25 05:00:18;;;;;;;9.30;5.93;;;2.80;99.90;;;;;;5010771;28;20226;-89
2020/12/25 05:02:50;;;;;;;9.98;6.53;;;2.80;99.90;;;;;;5013026;28;20291;-87
2020/12/25 05:05:17;;;;;;;9.88;5.78;;;2.80;99.90;;;;;;5014995;28;20718;-92
2020/12/25 05:07:45;;;;;;;9.20;6.13;;;2.80;99.90;;;;;;5016684;28;20227;-88
2020/12/25 05:10:12;;;;;;;6.85;5.65;;;2.80;99.90;;;;;;5015554;28;20199;-91
2020/12/25 05:12:40;;;;;;;12.02;7.45;;;2.70;99.90;;;;;;5014064;28;20271;-89
2020/12/25 05:15:07;;;;;;;9.73;6.90;;;2.60;99.90;;;;;;5015161;28;20199;-91
2020/12/25 05:17:35;;;;;;;8.07;5.30;;;2.60;99.90;;;;;;5015699;28;20290;-91
2020/12/25 05:20:04;;;;;;;8.90;5.03;;;2.50;99.90;;;;;;5016879;28;20246;-88
2020/12/25 05:22:30;;;;;;;8.20;6.10;;;2.60;99.90;;;;;;5015562;28;20269;-87
2020/12/25 05:25:00;;;;;;;13.30;7.97;;;2.60;99.90;;;;;;5015006;28;20239;-86
2020/12/25 05:27:28;;;;;;;11.27;7.10;;;2.60;99.90;;;;;;5015028;28;20295;-89
2020/12/25 05:29:57;;;;;;;9.18;4.70;;;2.60;99.90;;;;;;5015053;28;20207;-90
2020/12/25 05:32:27;;;;;;;8.20;6.00;;;2.60;99.90;;;;;;5018040;28;20203;-87
2020/12/25 05:34:55;;;;;;;7.63;5.88;;;2.70;99.90;;;;;;5015503;28;20211;-89
2020/12/25 05:37:22;;;;;;;9.57;6.57;;;2.70;99.90;;;;;;5013881;28;20208;-86
2020/12/25 05:39:49;;;;;;;17.33;8.50;;;2.80;99.90;;;;;;5014893;28;20207;-88
2020/12/25 05:42:16;;;;;;;11.85;8.60;;;2.80;99.90;;;;;;5014429;28;20644;-90
2020/12/25 05:44:48;;;;;;;8.13;6.32;;;2.70;99.90;;;;;;5014577;28;20266;-90
2020/12/25 05:47:17;;;;;;;11.65;7.32;;;2.80;99.90;;;;;;5014754;28;20290;-90
2020/12/25 05:49:44;;;;;;;12.63;6.82;;;2.90;99.90;;;;;;5014553;28;20200;-90
2020/12/25 05:52:13;;;;;;;13.00;7.07;;;2.80;99.90;;;;;;5013503;28;20295;-86
2020/12/25 05:54:42;;;;;;;9.73;6.50;;;2.80;99.90;;;;;;5014887;28;20302;-88
2020/12/25 05:57:09;;;;;;;10.07;6.35;;;2.80;99.90;;;;;;5014585;28;20675;-87
2020/12/25 05:59:35;;;;;;;9.07;6.03;;;2.80;99.90;;;;;;5020320;28;20208;-91
2020/12/25 06:02:06;;;;;;;10.73;6.97;;;2.80;99.90;;;;;;5020288;28;20184;-91
2020/12/25 06:04:40;;;;;;;10.15;6.20;;;2.80;99.90;;;;;;5019877;28;20656;-88
2020/12/25 06:07:11;;;;;;;12.10;6.43;;;2.80;99.90;;;;;;5016789;28;20566;-91
2020/12/25 06:09:44;;;;;;;10.57;7.20;;;2.80;99.90;;;;;;5018700;28;20284;-91
2020/12/25 06:12:15;;;;;;;8.25;5.85;;;2.80;99.90;;;;;;5024326;22;20319;-89
2020/12/25 06:14:41;;;;;;;11.90;6.10;;;2.80;99.90;;;;;;5001926;28;20267;-94
2020/12/25 06:17:15;;;;;;;11.70;6.80;;;2.80;99.90;;;;;;5001060;28;20216;-92
2020/12/25 06:19:51;;;;;;;8.05;5.55;;;2.80;99.90;;;;;;5006373;28;20211;-93
2020/12/25 06:22:24;;;;;;;10.00;6.97;;;2.80;99.90;;;;;;4997618;28;20668;-93
2020/12/25 06:24:52;;;;;;;8.55;5.68;;;2.90;99.90;;;;;;5000418;28;20228;-92
2020/12/25 06:27:19;;;;;;;11.13;6.80;;;2.90;99.90;;;;;;4996825;28;20242;-92
2020/12/25 06:29:45;;;;;;;11.23;6.80;;;2.80;99.90;;;;;;4998831;28;20287;-94
2020/12/25 06:32:12;;;;;;;9.05;5.72;;;2.80;99.90;;;;;;4997650;28;20748;-90
2020/12/25 06:34:46;;;;;;;15.52;7.75;;;2.90;99.90;;;;;;4996861;28;20284;-90
2020/12/25 06:37:14;;;;;;;8.75;6.25;;;2.90;99.90;;;;;;4992832;28;20747;-90
2020/12/25 06:39:48;;;;;;;8.95;6.50;;;2.90;99.90;;;;;;4994287;28;20288;-89
2020/12/25 06:42:19;;;;;;;9.93;5.97;;;2.90;99.90;;;;;;4997434;28;20268;-90
2020/12/25 06:44:49;;;;;;;9.95;6.88;;;2.90;99.90;;;;;;5011362;28;20298;-92
2020/12/25 06:47:28;;;;;;;9.40;6.05;;;2.90;99.90;;;;;;5014306;28;20210;-88
2020/12/25 06:49:56;;;;;;;11.30;7.57;;;2.90;99.90;;;;;;5013673;28;20290;-87
2020/12/25 06:52:30;;;;;;;11.23;5.97;;;2.80;99.90;;;;;;5013538;28;20294;-86
2020/12/25 06:54:56;;;;;;;11.30;7.10;;;2.80;99.90;;;;;;5014380;28;20286;-90
2020/12/25 06:57:27;;;;;;;11.45;6.80;;;2.80;99.90;;;;;;5014054;28;20212;-89
2020/12/25 06:59:53;;;;;;;9.98;7.07;;;2.80;99.90;;;;;;5014031;28;20210;-90
2020/12/25 07:02:21;;;;;;;13.52;7.20;;;2.80;99.90;;;;;;5013024;28;20214;-87
2020/12/25 07:04:49;;;;;;;11.95;7.00;;;2.80;99.90;;;;;;5013360;28;20663;-84
2020/12/25 07:07:20;;;;;;;10.05;7.50;;;2.90;99.90;;;;;;4993963;28;20208;-87
2020/12/25 07:09:48;;;;;;;10.18;5.90;;;2.80;99.90;;;;;;5018167;23;20627;-89
2020/12/25 07:12:15;;;;;;;12.23;7.20;;;2.80;99.90;;;;;;5013408;28;20261;-89
2020/12/25 07:14:42;;;;;;;11.25;6.03;;;2.90;99.90;;;;;;5013195;28;20207;-87
2020/12/25 07:17:08;;;;;;;10.27;6.63;;;2.90;99.90;;;;;;5010236;28;20290;-88
2020/12/25 07:19:35;;;;;;;10.20;6.85;;;2.90;99.90;;;;;;5012746;28;20204;-93
2020/12/25 07:22:03;;;;;;;17.35;6.70;;;2.90;99.90;;;;;;5012695;28;20200;-88
2020/12/25 07:24:31;;;;;;;13.73;8.05;;;2.90;99.90;;;;;;5013017;28;20318;-86
2020/12/25 07:26:57;;;;;;;12.77;7.97;;;3.00;99.90;;;;;;5013865;28;20207;-89
2020/12/25 07:29:24;;;;;;;10.93;6.55;;;3.00;99.90;;;;;;5012942;28;20287;-91
2020/12/25 07:31:52;;;;;;;12.02;8.50;;;3.00;99.90;;;;;;5013372;28;20290;-92
2020/12/25 07:34:20;;;;;;;13.13;7.63;;;3.00;99.90;;;;;;5012058;28;20253;-89
2020/12/25 07:36:48;;;;;;;15.57;9.35;;;3.00;99.90;;;;;;5011889;28;20980;-88
2020/12/25 07:39:14;;;;;;;13.82;10.13;;;2.90;99.90;;;;;;5012975;28;20203;-86
2020/12/25 07:41:42;;;;;;;16.90;7.55;;;3.00;99.90;;;;;;5012830;28;20203;-88
2020/12/25 07:44:08;;;;;;;14.75;7.90;;;3.00;99.90;;;;;;5013335;28;20327;-89
2020/12/25 07:46:37;;;;;;;12.18;7.00;;;3.10;99.90;;;;;;5015139;28;20302;-86
2020/12/25 07:49:08;;;;;;;11.38;7.00;;;3.00;99.90;;;;;;5025401;28;20206;-91
2020/12/25 07:51:35;;;;;;;12.68;7.40;;;3.10;99.90;;;;;;5033576;28;20195;-85
2020/12/25 07:54:02;;;;;;;15.00;8.63;;;3.10;99.90;;;;;;5032792;28;20664;-88
2020/12/25 07:56:31;;;;;;;14.40;7.82;;;3.10;99.90;;;;;;5022050;28;20275;-89
2020/12/25 07:58:58;;;;;;;8.55;6.93;;;3.10;99.90;;;;;;5026554;28;20227;-89
2020/12/25 08:01:26;;;;;;;13.00;7.25;;;3.10;99.90;;;;;;5014775;28;20290;-88
2020/12/25 08:03:53;;;;;;;9.68;7.55;;;3.10;99.90;;;;;;5013220;28;20578;-88
2020/12/25 08:06:21;;;;;;;15.82;9.18;;;3.20;99.90;;;;;;5012007;28;20262;-88
2020/12/25 08:08:51;;;;;;;16.15;9.00;;;3.10;99.90;;;;;;5012655;28;20327;-87
2020/12/25 08:11:18;;;;;;;12.13;8.27;;;3.20;99.90;;;;;;5012970;28;20660;-89
2020/12/25 08:13:48;;;;;;;11.82;7.35;;;3.10;99.90;;;;;;5013186;28;20338;-84
2020/12/25 08:16:23;;;;;;;14.60;8.35;;;3.20;99.90;;;;;;5014454;28;20206;-87
2020/12/25 08:18:53;;;;;;;11.65;7.40;;;3.20;99.90;;;;;;5015470;28;20207;-90
2020/12/25 08:21:20;;;;;;;11.23;7.95;;;3.20;99.90;;;;;;5013558;28;20212;-90
2020/12/25 08:23:56;;;;;;;13.00;7.32;;;3.20;99.90;;;;;;5017411;28;20266;-91
2020/12/25 08:26:32;;;;;;;14.25;7.80;;;3.20;99.90;;;;;;5022287;28;20242;-93
2020/12/25 08:28:59;;;;;;;10.07;6.80;;;3.20;99.90;;;;;;5013196;28;20214;-86
2020/12/25 08:31:33;;;;;;;10.60;6.57;;;3.20;99.90;;;;;;5012706;28;20295;-85
2020/12/25 08:33:59;;;;;;;11.18;6.90;;;3.10;99.90;;;;;;5012777;28;20207;-85
2020/12/25 08:36:26;;;;;;;12.80;7.25;;;3.20;99.90;;;;;;5013702;28;20230;-93
2020/12/25 08:38:52;;;;;;;20.10;7.47;;;3.00;99.90;;;;;;5015675;28;20199;-92
2020/12/25 08:41:18;;;;;;;17.83;9.57;;;3.00;99.90;;;;;;5018879;28;20451;-90
2020/12/25 08:43:45;;;;;;;22.27;11.43;;;2.90;99.90;;;;;;5017793;28;20239;-89
2020/12/25 08:46:11;;;;;;;17.88;11.85;;;2.90;99.90;;;;;;5018084;28;20254;-90
2020/12/25 08:48:50;;;;;;;12.93;9.48;;;2.90;99.90;;;;;;5017602;28;20290;-90
2020/12/25 08:51:17;;;;;;;13.23;8.90;;;2.90;99.90;;;;;;5016623;28;20333;-91
2020/12/25 08:53:51;;;;;;;20.17;11.40;;;2.80;99.90;;;;;;5014557;28;20516;-91
2020/12/25 08:56:18;;;;;;;13.38;10.00;;;2.90;99.90;;;;;;5015724;28;20722;-90
2020/12/25 08:58:54;;;;;;;15.38;8.55;;;3.10;99.90;;;;;;5016144;28;20306;-89
2020/12/25 09:01:22;;;;;;;15.13;8.70;;;3.00;99.90;;;;;;5015831;28;20229;-86
2020/12/25 09:03:49;;;;;;;14.07;9.63;;;3.20;99.90;;;;;;5012712;28;20203;-87
2020/12/25 09:06:15;;;;;;;11.85;9.02;;;3.20;99.90;;;;;;5014360;28;20235;-87
2020/12/25 09:08:42;;;;;;;14.43;8.95;;;3.20;99.90;;;;;;5014215;28;20277;-85
2020/12/25 09:11:09;;;;;;;13.25;9.43;;;3.20;99.90;;;;;;5015869;28;20203;-85
2020/12/25 09:13:35;;;;;;;13.18;7.85;;;3.20;99.90;;;;;;5015284;28;20638;-84
2020/12/25 09:16:02;;;;;;;13.73;8.27;;;3.30;99.90;;;;;;5015232;28;20204;-92
2020/12/25 09:18:28;;;;;;;13.30;7.57;;;3.30;99.90;;;;;;5014869;28;20294;-85
2020/12/25 09:20:56;;;;;;;15.55;9.35;;;3.30;99.90;;;;;;5013526;28;20349;-83
2020/12/25 09:23:22;;;;;;;15.23;7.75;;;3.40;99.90;;;;;;5014428;28;20210;-83
2020/12/25 09:25:49;;;;;;;14.40;10.85;;;3.40;99.90;;;;;;5015253;28;20239;-83
2020/12/25 09:28:15;;;;;;;15.35;10.57;;;3.50;99.90;;;;;;5015203;28;20342;-86
2020/12/25 09:30:41;;;;;;;13.55;11.75;;;3.50;99.90;;;;;;5015204;28;20289;-84
2020/12/25 09:33:08;;;;;;;15.43;10.07;;;3.50;99.90;;;;;;5014665;28;20282;-87
2020/12/25 09:35:34;;;;;;;13.50;11.13;;;3.50;99.90;;;;;;4995216;28;20216;-87
2020/12/25 09:38:01;;;;;;;13.18;8.82;;;3.60;99.90;;;;;;4995138;28;20210;-86
2020/12/25 09:40:28;;;;;;;16.30;10.25;;;3.60;99.90;;;;;;4995427;28;20205;-85
2020/12/25 09:42:56;;;;;;;14.40;9.57;;;3.60;99.90;;;;;;4996786;28;20303;-87
2020/12/25 09:45:22;;;;;;;12.93;7.80;;;3.60;99.90;;;;;;4995182;28;20280;-84
2020/12/25 09:47:48;;;;;;;12.52;9.13;;;3.70;99.90;;;;;;4995044;28;20283;-85
2020/12/25 09:50:15;;;;;;;15.38;9.00;;;3.60;99.90;;;;;;4993570;28;20239;-84
2020/12/25 09:52:41;;;;;;;12.88;8.35;;;3.70;99.90;;;;;;4993822;28;20303;-85
2020/12/25 09:55:08;;;;;;;11.75;6.97;;;3.80;99.90;;;;;;4995045;28;20806;-75
2020/12/25 09:57:35;;;;;;;9.13;8.23;;;3.80;99.90;;;;;;4995687;28;20234;-90
2020/12/25 10:00:08;;;;;;;10.48;6.40;;;3.80;99.90;;;;;;4990952;28;20217;-85
2020/12/25 10:02:35;;;;;;;9.80;6.28;;;3.70;99.90;;;;;;4995664;28;20677;-91
2020/12/25 10:05:01;;;;;;;7.97;5.55;;;3.80;99.90;;;;;;5010811;28;20244;-86
2020/12/25 10:07:28;;;;;;;9.70;5.28;;;3.80;99.90;;;;;;5014040;28;20735;-88
2020/12/25 10:09:54;;;;;;;11.50;5.28;;;3.80;99.90;;;;;;5014595;28;20231;-84
2020/12/25 10:12:21;;;;;;;9.80;5.95;;;3.80;99.90;;;;;;5014946;28;20337;-81
2020/12/25 10:14:48;;;;;;;11.57;5.70;;;3.80;99.90;;;;;;5014495;28;20294;-86
2020/12/25 10:17:14;;;;;;;8.40;5.70;;;3.80;99.90;;;;;;5014367;28;20226;-84
2020/12/25 10:19:40;;;;;;;9.35;5.68;;;3.70;99.90;;;;;;5013846;28;20214;-84
2020/12/25 10:22:07;;;;;;;8.27;4.20;;;3.80;99.90;;;;;;5013029;28;20217;-82
2020/12/25 10:24:33;;;;;;;7.85;5.90;;;3.70;99.90;;;;;;5013926;28;20302;-84
2020/12/25 10:27:03;;;;;;;12.18;6.55;;;3.70;99.90;;;;;;5014077;28;20257;-88
2020/12/25 10:29:30;;;;;;;8.38;6.13;;;3.70;99.90;;;;;;5014079;28;20262;-83
2020/12/25 10:31:56;;;;;;;8.68;5.15;;;3.90;99.90;;;;;;5014071;28;20213;-84
2020/12/25 10:34:23;;;;;;;10.43;6.45;;;4.00;99.90;;;;;;5013509;28;20203;-83
2020/12/25 10:36:49;;;;;;;9.20;6.22;;;4.20;99.90;;;;;;5012616;28;20298;-84
2020/12/25 10:39:16;;;;;;;8.82;6.32;;;4.10;99.90;;;;;;5013345;28;20206;-80
2020/12/25 10:41:42;;;;;;;6.97;5.00;;;4.10;99.90;;;;;;5013807;28;20254;-80
2020/12/25 10:44:09;;;;;;;10.27;6.13;;;4.10;99.90;;;;;;5013984;28;20199;-84
2020/12/25 10:46:37;;;;;;;7.80;5.43;;;4.00;99.90;;;;;;5013531;28;20325;-85
2020/12/25 10:49:03;;;;;;;9.73;6.10;;;4.00;99.90;;;;;;5013547;28;20269;-86
2020/12/25 10:51:30;;;;;;;7.97;5.57;;;4.00;99.90;;;;;;5012950;28;20294;-82
2020/12/25 10:53:56;;;;;;;9.07;5.93;;;4.00;99.90;;;;;;5014962;28;20299;-84
2020/12/25 10:56:24;;;;;;;8.18;5.70;;;4.20;99.90;;;;;;5013551;28;20231;-81
2020/12/25 10:58:51;;;;;;;6.55;4.95;;;4.30;99.90;;;;;;5015494;28;20199;-81
2020/12/25 11:01:25;;;;;;;7.28;5.13;;;4.40;99.90;;;;;;5014491;28;20206;-87
2020/12/25 11:03:52;;;;;;;8.32;5.63;;;4.30;99.90;;;;;;5012901;28;20265;-81
2020/12/25 11:06:19;;;;;;;7.65;5.55;;;4.30;99.90;;;;;;5012000;28;20749;-82
2020/12/25 11:08:47;;;;;;;7.40;4.32;;;4.20;99.90;;;;;;5013187;28;20599;-88
2020/12/25 11:11:22;;;;;;;6.05;4.93;;;4.30;99.90;;;;;;5009298;28;20214;-87
2020/12/25 11:13:48;;;;;;;6.00;5.15;;;4.20;99.90;;;;;;5013492;28;20239;-80
2020/12/25 11:16:20;;;;;;;8.90;5.85;;;4.10;99.90;;;;;;5013633;28;20262;-81
2020/12/25 11:18:47;;;;;;;6.53;4.75;;;4.10;99.90;;;;;;5013434;28;20290;-83
2020/12/25 11:21:19;;;;;;;8.32;5.10;;;4.00;99.90;;;;;;5011268;28;20286;-81
2020/12/25 11:23:45;;;;;;;5.90;4.32;;;3.90;99.90;;;;;;5012974;28;20321;-80
2020/12/25 11:26:19;;;;;;;4.35;3.80;;;3.80;99.90;;;;;;5012955;28;20319;-82
2020/12/25 11:28:45;;;;;;;5.63;4.05;;;3.60;99.90;;;;;;5012997;28;20687;-87
2020/12/25 11:31:12;;;;;;;10.18;3.95;;;3.40;99.90;;;;;;5012921;28;20211;-81
2020/12/25 11:33:38;;;;;;;6.15;4.75;;;3.40;99.90;;;;;;5012096;28;20489;-80
2020/12/25 11:36:04;;;;;;;7.55;4.75;;;3.30;99.90;;;;;;5011577;28;20235;-82
2020/12/25 11:38:32;;;;;;;5.63;4.22;;;3.30;99.90;;;;;;5012858;28;20864;-85
2020/12/25 11:40:58;;;;;;;5.22;4.13;;;3.40;99.90;;;;;;5012716;28;20691;-81
2020/12/25 11:43:24;;;;;;;6.55;3.72;;;3.40;99.90;;;;;;5013190;28;20288;-84
2020/12/25 11:45:51;;;;;;;5.78;4.50;;;3.50;99.90;;;;;;5012893;28;20238;-81
2020/12/25 11:48:18;;;;;;;7.72;4.43;;;3.50;99.90;;;;;;5011900;28;20215;-88
2020/12/25 11:50:44;;;;;;;9.45;5.35;;;3.70;99.90;;;;;;5011871;28;20207;-90
2020/12/25 11:53:17;;;;;;;10.32;6.50;;;3.70;99.90;;;;;;5009813;28;20294;-92
2020/12/25 11:55:46;;;;;;;12.02;6.03;;;3.70;99.90;;;;;;5013977;28;20290;-85
2020/12/25 11:58:12;;;;;;;8.50;5.53;;;3.80;99.90;;;;;;5005121;28;20833;-84
2020/12/25 12:00:39;;;;;;;15.10;8.55;;;3.70;99.90;;;;;;5009670;28;20644;-86
2020/12/25 12:03:05;;;;;;;8.50;5.53;;;3.80;99.90;;;;;;5009254;28;20239;-84
2020/12/25 12:05:31;;;;;;;6.93;4.22;;;3.70;99.90;;;;;;5012465;28;20231;-84
2020/12/25 12:07:58;;;;;;;8.65;4.97;;;3.60;99.90;;;;;;5013722;28;20278;-90
2020/12/25 12:10:25;;;;;;;5.93;4.10;;;3.50;99.90;;;;;;5012840;28;20246;-90
2020/12/25 12:12:52;;;;;;;6.65;4.35;;;3.60;99.90;;;;;;5008705;28;20608;-82
2020/12/25 12:15:18;;;;;;;6.60;5.22;;;3.60;99.90;;;;;;5012487;28;20215;-81
2020/12/25 12:17:46;;;;;;;6.75;4.53;;;3.70;99.90;;;;;;5014674;28;20295;-87
2020/12/25 12:20:13;;;;;;;7.45;5.45;;;3.80;99.90;;;;;;5014937;28;20286;-80
2020/12/25 12:22:42;;;;;;;11.98;4.70;;;3.90;99.90;;;;;;5015778;28;20214;-83
2020/12/25 12:25:09;;;;;;;4.05;3.60;;;3.90;99.90;;;;;;5016771;28;20227;-81
2020/12/25 12:27:35;;;;;;;5.78;4.57;;;3.70;99.90;;;;;;5024317;28;20255;-85
2020/12/25 12:30:04;;;;;;;6.72;3.85;;;3.70;99.90;;;;;;5024253;28;20290;-81
2020/12/25 12:32:30;;;;;;;4.95;3.70;;;3.70;99.90;;;;;;5015646;28;20306;-81
2020/12/25 12:34:57;;;;;;;4.38;3.45;;;3.60;99.90;;;;;;5006542;28;20207;-82
2020/12/25 12:37:24;;;;;;;7.20;4.00;;;3.60;99.90;;;;;;4997649;28;20210;-86
2020/12/25 12:39:51;;;;;;;5.40;4.05;;;3.50;99.90;;;;;;4995926;28;20212;-83
2020/12/25 12:42:18;;;;;;;6.35;4.63;;;3.60;99.90;;;;;;4995921;28;20212;-81
2020/12/25 12:44:44;;;;;;;7.95;3.15;;;3.60;99.90;;;;;;5004381;28;20287;-87
2020/12/25 12:47:12;;;;;;;9.35;5.50;;;3.60;99.90;;;;;;5015314;28;20266;-88
2020/12/25 12:49:38;;;;;;;5.30;3.58;;;3.60;99.90;;;;;;5014960;28;20325;-82
2020/12/25 12:52:05;;;;;;;7.38;4.80;;;3.60;99.90;;;;;;5014397;28;20610;-82
2020/12/25 12:54:31;;;;;;;6.28;4.10;;;3.60;99.90;;;;;;5015250;28;20204;-83
2020/12/25 12:56:57;;;;;;;7.93;5.07;;;3.70;99.90;;;;;;5015189;28;20742;-83